Time,TemperatureF,DewpointF,PressureIn,WindDirection,WindDirectionDegrees,WindSpeedMPH,WindSpeedGustMPH,Humidity,HourlyPrecipIn,Conditions,Clouds,dailyrainin,SoftwareType,DateUTC
2013-04-06 00:04:00,37.0,24.0,-100.00,East,80,4.0,6.0,59,0.00,,,-99.99,,2013-04-06 04:04:00,
2013-04-06 00:14:00,36.0,24.0,-100.00,East,80,4.0,6.0,60,0.00,,,-99.99,,2013-04-06 04:14:00,
2013-04-06 00:23:00,36.0,24.0,-100.00,East,80,4.0,6.0,61,0.00,,,-99.99,,2013-04-06 04:23:00,
2013-04-06 00:33:00,35.0,24.0,-100.00,East,80,4.0,6.0,63,0.00,,,-99.99,,2013-04-06 04:33:00,
2013-04-06 00:42:00,35.0,24.0,-100.00,ENE,75,6.0,7.0,63,0.00,,,-99.99,,2013-04-06 04:42:00,
2013-04-06 00:52:00,35.0,24.0,-100.00,East,80,6.0,9.0,62,0.00,,,-99.99,,2013-04-06 04:52:00,
2013-04-06 01:02:00,35.0,24.0,-100.00,East,80,6.0,8.0,63,0.00,,,-99.99,,2013-04-06 05:02:00,
2013-04-06 01:13:00,35.0,24.0,-100.00,East,85,5.0,7.0,64,0.00,,,-99.99,,2013-04-06 05:13:00,
2013-04-06 01:22:00,34.0,24.0,-100.00,East,90,5.0,6.0,65,0.00,,,-99.99,,2013-04-06 05:22:00,
2013-04-06 01:32:00,34.0,24.0,-100.00,East,85,5.0,7.0,65,0.00,,,-99.99,,2013-04-06 05:32:00,
2013-04-06 01:42:00,34.0,24.0,-100.00,East,90,4.0,6.0,64,0.00,,,-99.99,,2013-04-06 05:42:00,
2013-04-06 01:52:00,34.0,23.0,-100.00,East,80,4.0,6.0,64,0.00,,,-99.99,,2013-04-06 05:52:00,
2013-04-06 02:03:00,34.0,23.0,-100.00,East,85,5.0,7.0,64,0.00,,,-99.99,,2013-04-06 06:03:00,
2013-04-06 02:12:00,34.0,23.0,-100.00,East,90,6.0,7.0,64,0.00,,,-99.99,,2013-04-06 06:12:00,
2013-04-06 02:22:00,34.0,23.0,-100.00,East,85,6.0,9.0,64,0.00,,,-99.99,,2013-04-06 06:22:00,
2013-04-06 02:33:00,34.0,23.0,-100.00,East,90,6.0,8.0,65,0.00,,,-99.99,,2013-04-06 06:33:00,
2013-04-06 02:42:00,34.0,23.0,-100.00,East,90,5.0,8.0,65,0.00,,,-99.99,,2013-04-06 06:42:00,
2013-04-06 02:52:00,34.0,23.0,-100.00,East,90,6.0,9.0,64,0.00,,,-99.99,,2013-04-06 06:52:00,
2013-04-06 03:03:00,34.0,23.0,-100.00,East,90,5.0,7.0,64,0.00,,,-99.99,,2013-04-06 07:03:00,
2013-04-06 03:12:00,34.0,23.0,-100.00,East,95,5.0,7.0,64,0.00,,,-99.99,,2013-04-06 07:12:00,
2013-04-06 03:22:00,34.0,23.0,-100.00,East,95,4.0,7.0,64,0.00,,,-99.99,,2013-04-06 07:22:00,
2013-04-06 03:33:00,35.0,23.0,-100.00,East,95,6.0,7.0,62,0.00,,,-99.99,,2013-04-06 07:33:00,
2013-04-06 03:43:00,34.0,23.0,-100.00,East,95,4.0,8.0,63,0.00,,,-99.99,,2013-04-06 07:43:00,
2013-04-06 03:52:00,35.0,23.0,-100.00,East,100,6.0,11.0,62,0.00,,,-99.99,,2013-04-06 07:52:00,
2013-04-06 04:02:00,35.0,23.0,-100.00,East,95,7.0,11.0,61,0.00,,,-99.99,,2013-04-06 08:02:00,
2013-04-06 04:13:00,35.0,23.0,-100.00,East,90,7.0,11.0,62,0.00,,,-99.99,,2013-04-06 08:13:00,
2013-04-06 04:22:00,34.0,24.0,-100.00,East,95,6.0,9.0,65,0.00,,,-99.99,,2013-04-06 08:22:00,
2013-04-06 04:32:00,34.0,23.0,-100.00,East,100,7.0,9.0,64,0.00,,,-99.99,,2013-04-06 08:32:00,
2013-04-06 04:42:00,34.0,23.0,-100.00,East,100,8.0,11.0,63,0.00,,,-99.99,,2013-04-06 08:42:00,
2013-04-06 04:52:00,34.0,23.0,-100.00,East,100,8.0,11.0,63,0.00,,,-99.99,,2013-04-06 08:52:00,
2013-04-06 05:02:00,34.0,24.0,-100.00,ESE,110,6.0,9.0,66,0.00,,,-99.99,,2013-04-06 09:02:00,
2013-04-06 05:12:00,34.0,24.0,-100.00,ESE,115,7.0,11.0,66,0.00,,,-99.99,,2013-04-06 09:12:00,
2013-04-06 05:22:00,33.0,24.0,-100.00,ESE,115,7.0,10.0,67,0.00,,,-99.99,,2013-04-06 09:22:00,
2013-04-06 05:33:00,34.0,24.0,-100.00,ESE,115,10.0,12.0,66,0.00,,,-99.99,,2013-04-06 09:33:00,
2013-04-06 05:43:00,34.0,24.0,-100.00,ESE,110,9.0,14.0,66,0.00,,,-99.99,,2013-04-06 09:43:00,
2013-04-06 05:53:00,34.0,24.0,-100.00,ESE,105,7.0,12.0,65,0.00,,,-99.99,,2013-04-06 09:53:00,
2013-04-06 06:03:00,34.0,24.0,-100.00,ESE,115,7.0,10.0,66,0.00,,,-99.99,,2013-04-06 10:03:00,
2013-04-06 06:13:00,34.0,24.0,-100.00,SE,125,9.0,12.0,67,0.00,,,-99.99,,2013-04-06 10:13:00,
2013-04-06 06:23:00,34.0,24.0,-100.00,ESE,110,9.0,12.0,67,0.00,,,-99.99,,2013-04-06 10:23:00,
2013-04-06 06:33:00,34.0,23.0,-100.00,ESE,115,7.0,12.0,64,0.00,,,-99.99,,2013-04-06 10:33:00,
2013-04-06 06:42:00,34.0,23.0,-100.00,SE,130,7.0,12.0,63,0.00,,,-99.99,,2013-04-06 10:42:00,
2013-04-06 06:52:00,34.0,23.0,-100.00,SE,125,9.0,11.0,64,0.00,,,-99.99,,2013-04-06 10:52:00,
2013-04-06 07:03:00,33.0,23.0,-100.00,SE,125,7.0,12.0,65,0.00,,,-99.99,,2013-04-06 11:03:00,
2013-04-06 07:12:00,33.0,22.0,-100.00,ESE,120,6.0,10.0,65,0.00,,,-99.99,,2013-04-06 11:12:00,
2013-04-06 07:23:00,33.0,22.0,-100.00,SE,135,6.0,9.0,66,0.00,,,-99.99,,2013-04-06 11:23:00,
2013-04-06 07:33:00,33.0,22.0,-100.00,SE,140,8.0,11.0,66,0.00,,,-99.99,,2013-04-06 11:33:00,
2013-04-06 07:43:00,33.0,23.0,-100.00,SE,140,7.0,9.0,67,0.00,,,-99.99,,2013-04-06 11:43:00,
2013-04-06 07:52:00,33.0,23.0,-100.00,SE,145,6.0,9.0,68,0.00,,,-99.99,,2013-04-06 11:52:00,
2013-04-06 08:02:00,33.0,23.0,-100.00,SSE,150,7.0,9.0,67,0.00,,,-99.99,,2013-04-06 12:02:00,
2013-04-06 08:12:00,33.0,24.0,-100.00,SE,135,9.0,11.0,66,0.00,,,-99.99,,2013-04-06 12:12:00,
2013-04-06 08:22:00,34.0,24.0,-100.00,SE,145,11.0,14.0,65,0.00,,,-99.99,,2013-04-06 12:22:00,
2013-04-06 08:33:00,35.0,22.0,-100.00,SE,145,12.0,17.0,60,0.00,,,-99.99,,2013-04-06 12:33:00,
2013-04-06 08:43:00,35.0,20.0,-100.00,SE,140,16.0,19.0,53,0.00,,,-99.99,,2013-04-06 12:43:00,
2013-04-06 08:52:00,36.0,19.0,-100.00,SE,135,12.0,17.0,50,0.00,,,-99.99,,2013-04-06 12:52:00,
2013-04-06 09:03:00,36.0,17.0,-100.00,SE,140,14.0,19.0,45,0.00,,,-99.99,,2013-04-06 13:03:00,
2013-04-06 09:13:00,37.0,15.0,-100.00,SE,130,15.0,22.0,41,0.00,,,-99.99,,2013-04-06 13:13:00,
2013-04-06 09:24:00,37.0,16.0,-100.00,SE,140,15.0,22.0,42,0.00,,,-99.99,,2013-04-06 13:24:00,
2013-04-06 09:32:00,37.0,15.0,-100.00,SE,140,18.0,22.0,39,0.00,,,-99.99,,2013-04-06 13:32:00,
2013-04-06 09:43:00,38.0,13.0,-100.00,SSE,150,15.0,24.0,35,0.00,,,-99.99,,2013-04-06 13:43:00,
2013-04-06 09:52:00,40.0,14.0,-100.00,SE,130,17.0,22.0,34,0.00,,,-99.99,,2013-04-06 13:52:00,
2013-04-06 10:05:00,40.0,13.0,-100.00,SE,130,21.0,27.0,33,0.00,,,-99.99,,2013-04-06 14:05:00,
2013-04-06 10:12:00,40.0,12.0,-100.00,ESE,120,21.0,25.0,30,0.00,,,-99.99,,2013-04-06 14:12:00,
2013-04-06 10:22:00,41.0,14.0,-100.00,SE,135,20.0,29.0,32,0.00,,,-99.99,,2013-04-06 14:22:00,
2013-04-06 10:33:00,42.0,15.0,-100.00,SE,130,17.0,27.0,32,0.00,,,-99.99,,2013-04-06 14:33:00,
2013-04-06 10:42:00,42.0,14.0,-100.00,SE,135,21.0,27.0,31,0.00,,,-99.99,,2013-04-06 14:42:00,
2013-04-06 10:52:00,42.0,14.0,-100.00,SE,140,18.0,27.0,31,0.00,,,-99.99,,2013-04-06 14:52:00,
2013-04-06 11:02:00,43.0,15.0,-100.00,SE,135,21.0,29.0,32,0.00,,,-99.99,,2013-04-06 15:02:00,
2013-04-06 11:12:00,44.0,15.0,-100.00,SE,130,21.0,27.0,31,0.00,,,-99.99,,2013-04-06 15:12:00,
2013-04-06 11:23:00,44.0,16.0,-100.00,SE,125,21.0,28.0,31,0.00,,,-99.99,,2013-04-06 15:23:00,
2013-04-06 11:33:00,45.0,17.0,-100.00,SSE,150,19.0,28.0,31,0.00,,,-99.99,,2013-04-06 15:33:00,
2013-04-06 11:43:00,47.0,18.0,-100.00,SSE,150,17.0,26.0,31,0.00,,,-99.99,,2013-04-06 15:43:00,
2013-04-06 11:52:00,47.0,17.0,-100.00,SE,125,21.0,25.0,30,0.00,,,-99.99,,2013-04-06 15:52:00,
2013-04-06 12:05:00,49.0,18.0,-100.00,SE,145,17.0,23.0,29,0.00,,,-99.99,,2013-04-06 16:05:00,
2013-04-06 12:17:00,50.0,21.0,-100.00,SE,140,16.0,22.0,31,0.00,,,-99.99,,2013-04-06 16:17:00,
2013-04-06 12:23:00,49.0,20.0,-100.00,SE,140,17.0,23.0,30,0.00,,,-99.99,,2013-04-06 16:23:00,
2013-04-06 12:33:00,49.0,20.0,-100.00,SE,145,14.0,24.0,31,0.00,,,-99.99,,2013-04-06 16:33:00,
2013-04-06 12:42:00,51.0,21.0,-100.00,SE,145,14.0,22.0,30,0.00,,,-99.99,,2013-04-06 16:42:00,
2013-04-06 12:53:00,50.0,20.0,-100.00,SE,130,16.0,22.0,29,0.00,,,-99.99,,2013-04-06 16:53:00,
2013-04-06 13:03:00,51.0,20.0,-100.00,SE,145,17.0,22.0,29,0.00,,,-99.99,,2013-04-06 17:03:00,
2013-04-06 13:12:00,53.0,24.0,-100.00,SE,140,15.0,22.0,31,0.00,,,-99.99,,2013-04-06 17:12:00,
2013-04-06 13:22:00,53.0,24.0,-100.00,SE,140,15.0,22.0,31,0.00,,,-99.99,,2013-04-06 17:22:00,
2013-04-06 13:33:00,52.0,22.0,-100.00,SSE,165,9.0,20.0,30,0.00,,,-99.99,,2013-04-06 17:33:00,
2013-04-06 13:42:00,53.0,23.0,-100.00,SE,145,10.0,19.0,30,0.00,,,-99.99,,2013-04-06 17:42:00,
2013-04-06 13:52:00,54.0,23.0,-100.00,SSE,150,13.0,19.0,29,0.00,,,-99.99,,2013-04-06 17:52:00,
2013-04-06 14:03:00,55.0,23.0,-100.00,South,175,14.0,22.0,28,0.00,,,-99.99,,2013-04-06 18:03:00,
2013-04-06 14:12:00,54.0,23.0,-100.00,SSE,165,14.0,20.0,29,0.00,,,-99.99,,2013-04-06 18:12:00,
2013-04-06 14:23:00,55.0,24.0,-100.00,South,170,11.0,22.0,30,0.00,,,-99.99,,2013-04-06 18:23:00,
2013-04-06 14:32:00,56.0,25.0,-100.00,South,170,14.0,19.0,30,0.00,,,-99.99,,2013-04-06 18:32:00,
2013-04-06 14:42:00,55.0,24.0,-100.00,SSE,165,9.0,22.0,30,0.00,,,-99.99,,2013-04-06 18:42:00,
2013-04-06 14:52:00,55.0,24.0,-100.00,SSE,165,12.0,20.0,31,0.00,,,-99.99,,2013-04-06 18:52:00,
2013-04-06 15:03:00,54.0,25.0,-100.00,SSE,160,14.0,21.0,32,0.00,,,-99.99,,2013-04-06 19:03:00,
2013-04-06 15:12:00,55.0,25.0,-100.00,SSE,155,12.0,20.0,31,0.00,,,-99.99,,2013-04-06 19:12:00,
2013-04-06 15:23:00,55.0,26.0,-100.00,SSE,160,10.0,19.0,31,0.00,,,-99.99,,2013-04-06 19:23:00,
2013-04-06 15:42:00,56.0,26.0,-100.00,SE,145,13.0,22.0,31,0.00,,,-99.99,,2013-04-06 19:42:00,
2013-04-06 15:53:00,57.0,26.0,-100.00,SE,145,12.0,20.0,30,0.00,,,-99.99,,2013-04-06 19:53:00,
2013-04-06 16:03:00,56.0,26.0,-100.00,SSE,160,12.0,23.0,30,0.00,,,-99.99,,2013-04-06 20:03:00,
2013-04-06 16:12:00,57.0,27.0,-100.00,SSE,155,11.0,19.0,32,0.00,,,-99.99,,2013-04-06 20:12:00,
2013-04-06 16:22:00,57.0,26.0,-100.00,SSE,150,17.0,25.0,30,0.00,,,-99.99,,2013-04-06 20:22:00,
2013-04-06 16:32:00,57.0,26.0,-100.00,SE,140,20.0,23.0,29,0.00,,,-99.99,,2013-04-06 20:32:00,
2013-04-06 16:42:00,58.0,26.0,-100.00,SSE,160,17.0,21.0,29,0.00,,,-99.99,,2013-04-06 20:42:00,
2013-04-06 16:52:00,58.0,28.0,-100.00,SSE,165,12.0,22.0,31,0.00,,,-99.99,,2013-04-06 20:52:00,
2013-04-06 17:02:00,59.0,27.0,-100.00,SSE,160,16.0,27.0,29,0.00,,,-99.99,,2013-04-06 21:02:00,
2013-04-06 17:13:00,58.0,28.0,-100.00,SSE,150,15.0,25.0,31,0.00,,,-99.99,,2013-04-06 21:13:00,
2013-04-06 17:22:00,59.0,29.0,-100.00,SSE,150,14.0,25.0,31,0.00,,,-99.99,,2013-04-06 21:22:00,
2013-04-06 17:33:00,60.0,29.0,-100.00,SSE,155,17.0,24.0,30,0.00,,,-99.99,,2013-04-06 21:33:00,
2013-04-06 17:43:00,59.0,28.0,-100.00,SSE,150,21.0,25.0,30,0.00,,,-99.99,,2013-04-06 21:43:00,
2013-04-06 17:52:00,59.0,29.0,-100.00,SSE,165,14.0,27.0,32,0.00,,,-99.99,,2013-04-06 21:52:00,
2013-04-06 18:03:00,59.0,29.0,-100.00,SSE,155,16.0,22.0,31,0.00,,,-99.99,,2013-04-06 22:03:00,
2013-04-06 18:13:00,60.0,29.0,-100.00,SSE,165,13.0,22.0,30,0.00,,,-99.99,,2013-04-06 22:13:00,
2013-04-06 18:23:00,60.0,29.0,-100.00,SSE,155,16.0,24.0,30,0.00,,,-99.99,,2013-04-06 22:23:00,
2013-04-06 18:35:00,60.0,29.0,-100.00,SSE,155,16.0,25.0,31,0.00,,,-99.99,,2013-04-06 22:35:00,
2013-04-06 18:43:00,59.0,29.0,-100.00,SE,145,21.0,25.0,31,0.00,,,-99.99,,2013-04-06 22:43:00,
2013-04-06 18:53:00,59.0,29.0,-100.00,SE,135,17.0,23.0,32,0.00,,,-99.99,,2013-04-06 22:53:00,
2013-04-06 19:03:00,60.0,30.0,-100.00,SE,145,18.0,27.0,32,0.00,,,-99.99,,2013-04-06 23:03:00,
2013-04-06 19:14:00,59.0,30.0,-100.00,SE,140,14.0,19.0,33,0.00,,,-99.99,,2013-04-06 23:14:00,
2013-04-06 19:23:00,59.0,30.0,-100.00,SSE,150,17.0,23.0,33,0.00,,,-99.99,,2013-04-06 23:23:00,
2013-04-06 19:34:00,58.0,30.0,-100.00,SE,145,17.0,22.0,34,0.00,,,-99.99,,2013-04-06 23:34:00,
2013-04-06 19:42:00,59.0,30.0,-100.00,SE,145,18.0,24.0,33,0.00,,,-99.99,,2013-04-06 23:42:00,
2013-04-06 19:52:00,58.0,30.0,-100.00,SE,140,18.0,24.0,34,0.00,,,-99.99,,2013-04-06 23:52:00,
2013-04-06 20:02:00,58.0,31.0,-100.00,SE,140,16.0,24.0,35,0.00,,,-99.99,,2013-04-07 00:02:00,
2013-04-06 20:13:00,58.0,30.0,-100.00,SE,145,17.0,23.0,35,0.00,,,-99.99,,2013-04-07 00:13:00,
2013-04-06 20:22:00,58.0,31.0,-100.00,SE,140,14.0,21.0,35,0.00,,,-99.99,,2013-04-07 00:22:00,
2013-04-06 20:33:00,58.0,31.0,-100.00,SE,145,16.0,23.0,34,0.00,,,-99.99,,2013-04-07 00:33:00,
2013-04-06 20:43:00,58.0,31.0,-100.00,SSE,150,15.0,21.0,35,0.00,,,-99.99,,2013-04-07 00:43:00,
2013-04-06 20:52:00,58.0,31.0,-100.00,SE,145,12.0,19.0,36,0.00,,,-99.99,,2013-04-07 00:52:00,
2013-04-06 21:02:00,58.0,31.0,-100.00,SE,140,14.0,18.0,36,0.00,,,-99.99,,2013-04-07 01:02:00,
2013-04-06 21:12:00,57.0,31.0,-100.00,SE,140,13.0,19.0,37,0.00,,,-99.99,,2013-04-07 01:12:00,
2013-04-06 21:33:00,57.0,31.0,-100.00,SE,145,12.0,18.0,37,0.00,,,-99.99,,2013-04-07 01:33:00,
2013-04-06 21:43:00,56.0,31.0,-100.00,SE,140,13.0,17.0,38,0.00,,,-99.99,,2013-04-07 01:43:00,
2013-04-06 21:52:00,56.0,31.0,-100.00,SE,145,12.0,17.0,37,0.00,,,-99.99,,2013-04-07 01:52:00,
2013-04-06 22:03:00,56.0,31.0,-100.00,SE,145,11.0,15.0,38,0.00,,,-99.99,,2013-04-07 02:03:00,
2013-04-06 22:12:00,56.0,30.0,-100.00,SE,145,13.0,16.0,37,0.00,,,-99.99,,2013-04-07 02:12:00,
2013-04-06 22:23:00,56.0,30.0,-100.00,SE,145,14.0,17.0,37,0.00,,,-99.99,,2013-04-07 02:23:00,
2013-04-06 22:33:00,56.0,30.0,-100.00,SE,145,14.0,19.0,37,0.00,,,-99.99,,2013-04-07 02:33:00,
2013-04-06 22:43:00,56.0,30.0,-100.00,SSE,150,13.0,19.0,36,0.00,,,-99.99,,2013-04-07 02:43:00,
2013-04-06 22:52:00,56.0,30.0,-100.00,SSE,150,14.0,21.0,37,0.00,,,-99.99,,2013-04-07 02:52:00,
2013-04-06 23:02:00,56.0,31.0,-100.00,SE,145,15.0,19.0,37,0.00,,,-99.99,,2013-04-07 03:02:00,
2013-04-06 23:12:00,57.0,31.0,-100.00,SE,145,17.0,23.0,37,0.00,,,-99.99,,2013-04-07 03:12:00,
2013-04-06 23:22:00,57.0,31.0,-100.00,SSE,150,15.0,21.0,37,0.00,,,-99.99,,2013-04-07 03:22:00,
2013-04-06 23:35:00,56.0,31.0,-100.00,SSE,150,16.0,21.0,38,0.00,,,-99.99,,2013-04-07 03:35:00,
2013-04-06 23:43:00,57.0,31.0,-100.00,SE,145,17.0,24.0,37,0.00,,,-99.99,,2013-04-07 03:43:00,
2013-04-06 23:53:00,56.0,32.0,-100.00,SSE,155,12.0,22.0,39,0.00,,,-99.99,,2013-04-07 03:53:00,